sensor_id;sensor_type;location;lat;lon;timestamp;temperature;humidity
11836;DHT22;5977;51.972;7.640;2023-05-31T00:01:41;20.00;66.70
11836;DHT22;5977;51.972;7.640;2023-05-31T00:04:09;20.00;66.50
11836;DHT22;5977;51.972;7.640;2023-05-31T00:06:37;20.10;66.30
11836;DHT22;5977;51.972;7.640;2023-05-31T00:09:07;20.10;66.20
11836;DHT22;5977;51.972;7.640;2023-05-31T00:11:35;19.90;66.30
11836;DHT22;5977;51.972;7.640;2023-05-31T00:14:03;19.90;66.60
11836;DHT22;5977;51.972;7.640;2023-05-31T00:16:30;19.80;66.70
11836;DHT22;5977;51.972;7.640;2023-05-31T00:19:18;20.00;66.90
11836;DHT22;5977;51.972;7.640;2023-05-31T00:21:46;19.90;66.60
11836;DHT22;5977;51.972;7.640;2023-05-31T00:24:16;19.90;66.70
11836;DHT22;5977;51.972;7.640;2023-05-31T00:26:44;19.90;66.70
11836;DHT22;5977;51.972;7.640;2023-05-31T00:29:12;19.80;66.80
11836;DHT22;5977;51.972;7.640;2023-05-31T00:31:41;19.70;67.40
11836;DHT22;5977;51.972;7.640;2023-05-31T00:34:09;19.70;67.70
11836;DHT22;5977;51.972;7.640;2023-05-31T00:36:39;19.60;67.90
11836;DHT22;5977;51.972;7.640;2023-05-31T00:39:07;19.60;67.90
11836;DHT22;5977;51.972;7.640;2023-05-31T00:41:36;19.60;68.00
11836;DHT22;5977;51.972;7.640;2023-05-31T00:44:04;19.70;67.70
11836;DHT22;5977;51.972;7.640;2023-05-31T00:46:33;19.70;67.70
11836;DHT22;5977;51.972;7.640;2023-05-31T00:49:03;19.60;67.90
11836;DHT22;5977;51.972;7.640;2023-05-31T00:51:32;19.60;67.80
11836;DHT22;5977;51.972;7.640;2023-05-31T00:54:00;19.60;68.00
11836;DHT22;5977;51.972;7.640;2023-05-31T00:56:29;19.60;67.90
11836;DHT22;5977;51.972;7.640;2023-05-31T00:58:59;19.60;68.60
11836;DHT22;5977;51.972;7.640;2023-05-31T01:01:28;19.50;68.10
11836;DHT22;5977;51.972;7.640;2023-05-31T01:04:00;19.40;68.20
11836;DHT22;5977;51.972;7.640;2023-05-31T01:06:29;19.50;68.50
11836;DHT22;5977;51.972;7.640;2023-05-31T01:09:00;19.50;68.50
11836;DHT22;5977;51.972;7.640;2023-05-31T01:11:39;19.50;68.80
11836;DHT22;5977;51.972;7.640;2023-05-31T01:14:22;19.50;68.80
11836;DHT22;5977;51.972;7.640;2023-05-31T01:16:58;19.50;69.00
11836;DHT22;5977;51.972;7.640;2023-05-31T01:19:36;19.50;69.00
11836;DHT22;5977;51.972;7.640;2023-05-31T01:22:13;19.40;69.20
11836;DHT22;5977;51.972;7.640;2023-05-31T01:24:50;19.40;69.20
11836;DHT22;5977;51.972;7.640;2023-05-31T01:27:22;19.40;69.40
11836;DHT22;5977;51.972;7.640;2023-05-31T01:29:50;19.30;69.30
11836;DHT22;5977;51.972;7.640;2023-05-31T01:32:20;19.40;69.50
11836;DHT22;5977;51.972;7.640;2023-05-31T01:34:50;19.30;69.90
11836;DHT22;5977;51.972;7.640;2023-05-31T01:37:17;19.40;70.00
11836;DHT22;5977;51.972;7.640;2023-05-31T01:39:46;19.50;69.50
11836;DHT22;5977;51.972;7.640;2023-05-31T01:42:15;19.50;69.30
11836;DHT22;5977;51.972;7.640;2023-05-31T01:44:46;19.50;69.20
11836;DHT22;5977;51.972;7.640;2023-05-31T01:47:15;19.50;68.90
11836;DHT22;5977;51.972;7.640;2023-05-31T01:49:43;19.50;68.90
11836;DHT22;5977;51.972;7.640;2023-05-31T01:52:15;19.60;68.80
11836;DHT22;5977;51.972;7.640;2023-05-31T01:54:43;19.50;68.80
11836;DHT22;5977;51.972;7.640;2023-05-31T01:57:12;19.50;69.00
11836;DHT22;5977;51.972;7.640;2023-05-31T01:59:41;19.40;69.10
11836;DHT22;5977;51.972;7.640;2023-05-31T02:02:11;19.50;69.20
11836;DHT22;5977;51.972;7.640;2023-05-31T02:04:40;19.50;69.00
11836;DHT22;5977;51.972;7.640;2023-05-31T02:07:09;19.50;68.80
11836;DHT22;5977;51.972;7.640;2023-05-31T02:09:40;19.40;68.70
11836;DHT22;5977;51.972;7.640;2023-05-31T02:12:09;19.40;68.90
11836;DHT22;5977;51.972;7.640;2023-05-31T02:14:37;19.40;68.50
11836;DHT22;5977;51.972;7.640;2023-05-31T02:17:05;19.40;68.70
11836;DHT22;5977;51.972;7.640;2023-05-31T02:19:35;19.40;68.70
11836;DHT22;5977;51.972;7.640;2023-05-31T02:22:05;19.30;68.50
11836;DHT22;5977;51.972;7.640;2023-05-31T02:24:33;19.30;68.70
11836;DHT22;5977;51.972;7.640;2023-05-31T02:27:02;19.30;68.70
11836;DHT22;5977;51.972;7.640;2023-05-31T02:29:30;19.30;68.90
11836;DHT22;5977;51.972;7.640;2023-05-31T02:31:58;19.30;69.00
11836;DHT22;5977;51.972;7.640;2023-05-31T02:34:26;19.30;69.10
11836;DHT22;5977;51.972;7.640;2023-05-31T02:36:55;19.30;69.00
11836;DHT22;5977;51.972;7.640;2023-05-31T02:39:24;19.40;68.80
11836;DHT22;5977;51.972;7.640;2023-05-31T02:41:52;19.40;68.60
11836;DHT22;5977;51.972;7.640;2023-05-31T02:44:20;19.30;68.80
11836;DHT22;5977;51.972;7.640;2023-05-31T02:46:48;19.20;68.70
11836;DHT22;5977;51.972;7.640;2023-05-31T02:49:16;19.10;68.90
11836;DHT22;5977;51.972;7.640;2023-05-31T02:51:44;19.00;69.00
11836;DHT22;5977;51.972;7.640;2023-05-31T02:54:13;19.00;69.30
11836;DHT22;5977;51.972;7.640;2023-05-31T02:56:41;19.00;69.20
11836;DHT22;5977;51.972;7.640;2023-05-31T02:59:13;19.00;68.90
11836;DHT22;5977;51.972;7.640;2023-05-31T03:01:49;18.80;69.10
11836;DHT22;5977;51.972;7.640;2023-05-31T03:04:30;18.80;69.80
11836;DHT22;5977;51.972;7.640;2023-05-31T03:06:58;19.00;70.00
11836;DHT22;5977;51.972;7.640;2023-05-31T03:09:30;19.10;70.20
11836;DHT22;5977;51.972;7.640;2023-05-31T03:11:59;19.00;69.60
11836;DHT22;5977;51.972;7.640;2023-05-31T03:14:28;19.00;69.60
11836;DHT22;5977;51.972;7.640;2023-05-31T03:16:58;18.90;69.90
11836;DHT22;5977;51.972;7.640;2023-05-31T03:19:26;18.90;69.70
11836;DHT22;5977;51.972;7.640;2023-05-31T03:21:54;19.00;69.60
11836;DHT22;5977;51.972;7.640;2023-05-31T03:24:25;19.10;69.30
11836;DHT22;5977;51.972;7.640;2023-05-31T03:26:55;19.10;69.20
11836;DHT22;5977;51.972;7.640;2023-05-31T03:29:25;19.00;69.00
11836;DHT22;5977;51.972;7.640;2023-05-31T03:31:53;19.10;69.80
11836;DHT22;5977;51.972;7.640;2023-05-31T03:34:21;19.00;69.60
11836;DHT22;5977;51.972;7.640;2023-05-31T03:36:49;19.10;69.80
11836;DHT22;5977;51.972;7.640;2023-05-31T03:39:27;19.00;69.60
11836;DHT22;5977;51.972;7.640;2023-05-31T03:41:57;19.00;69.50
11836;DHT22;5977;51.972;7.640;2023-05-31T03:44:25;19.00;69.50
11836;DHT22;5977;51.972;7.640;2023-05-31T03:46:53;18.90;69.30
11836;DHT22;5977;51.972;7.640;2023-05-31T03:49:21;18.90;69.70
11836;DHT22;5977;51.972;7.640;2023-05-31T03:51:49;19.00;69.70
11836;DHT22;5977;51.972;7.640;2023-05-31T03:54:17;19.10;69.60
11836;DHT22;5977;51.972;7.640;2023-05-31T03:56:45;19.10;69.70
11836;DHT22;5977;51.972;7.640;2023-05-31T03:59:14;19.00;69.50
11836;DHT22;5977;51.972;7.640;2023-05-31T04:01:42;18.90;69.90
11836;DHT22;5977;51.972;7.640;2023-05-31T04:04:10;19.00;70.10
11836;DHT22;5977;51.972;7.640;2023-05-31T04:06:39;19.00;70.00
11836;DHT22;5977;51.972;7.640;2023-05-31T04:09:08;19.00;70.10
11836;DHT22;5977;51.972;7.640;2023-05-31T04:11:37;18.70;70.10
11836;DHT22;5977;51.972;7.640;2023-05-31T04:14:05;18.80;70.90
11836;DHT22;5977;51.972;7.640;2023-05-31T04:16:34;18.80;70.90
11836;DHT22;5977;51.972;7.640;2023-05-31T04:19:03;18.90;70.60
11836;DHT22;5977;51.972;7.640;2023-05-31T04:21:31;19.00;70.30
11836;DHT22;5977;51.972;7.640;2023-05-31T04:24:00;19.00;70.00
11836;DHT22;5977;51.972;7.640;2023-05-31T04:26:29;18.80;70.40
11836;DHT22;5977;51.972;7.640;2023-05-31T04:28:59;18.90;70.60
11836;DHT22;5977;51.972;7.640;2023-05-31T04:31:28;19.00;70.50
11836;DHT22;5977;51.972;7.640;2023-05-31T04:34:17;19.10;70.20
11836;DHT22;5977;51.972;7.640;2023-05-31T04:36:48;19.20;70.10
11836;DHT22;5977;51.972;7.640;2023-05-31T04:39:20;20.20;68.10
11836;DHT22;5977;51.972;7.640;2023-05-31T04:41:52;21.20;64.30
11836;DHT22;5977;51.972;7.640;2023-05-31T04:44:20;22.00;62.00
11836;DHT22;5977;51.972;7.640;2023-05-31T04:46:51;22.00;60.70
11836;DHT22;5977;51.972;7.640;2023-05-31T04:49:20;22.40;59.20
11836;DHT22;5977;51.972;7.640;2023-05-31T04:51:49;22.90;58.40
11836;DHT22;5977;51.972;7.640;2023-05-31T04:54:17;23.10;57.90
11836;DHT22;5977;51.972;7.640;2023-05-31T04:56:45;23.50;57.20
11836;DHT22;5977;51.972;7.640;2023-05-31T04:59:13;23.40;57.20
11836;DHT22;5977;51.972;7.640;2023-05-31T05:01:42;22.80;57.80
11836;DHT22;5977;51.972;7.640;2023-05-31T05:04:14;22.00;59.90
11836;DHT22;5977;51.972;7.640;2023-05-31T05:06:43;21.20;61.90
11836;DHT22;5977;51.972;7.640;2023-05-31T05:09:11;20.90;63.60
11836;DHT22;5977;51.972;7.640;2023-05-31T05:11:39;20.50;64.70
11836;DHT22;5977;51.972;7.640;2023-05-31T05:14:08;20.30;65.60
11836;DHT22;5977;51.972;7.640;2023-05-31T05:16:36;20.30;65.70
11836;DHT22;5977;51.972;7.640;2023-05-31T05:19:04;20.00;66.80
11836;DHT22;5977;51.972;7.640;2023-05-31T05:21:35;19.90;66.80
11836;DHT22;5977;51.972;7.640;2023-05-31T05:24:05;20.00;67.20
11836;DHT22;5977;51.972;7.640;2023-05-31T05:26:33;20.00;67.00
11836;DHT22;5977;51.972;7.640;2023-05-31T05:29:04;19.90;67.80
11836;DHT22;5977;51.972;7.640;2023-05-31T05:31:32;19.90;68.10
11836;DHT22;5977;51.972;7.640;2023-05-31T05:34:03;19.90;67.40
11836;DHT22;5977;51.972;7.640;2023-05-31T05:36:31;20.10;67.70
11836;DHT22;5977;51.972;7.640;2023-05-31T05:39:00;20.20;67.70
11836;DHT22;5977;51.972;7.640;2023-05-31T05:41:34;20.20;67.20
11836;DHT22;5977;51.972;7.640;2023-05-31T05:44:03;20.30;66.90
11836;DHT22;5977;51.972;7.640;2023-05-31T05:46:32;20.30;67.30
11836;DHT22;5977;51.972;7.640;2023-05-31T05:49:01;20.00;67.80
11836;DHT22;5977;51.972;7.640;2023-05-31T05:51:30;20.20;67.80
11836;DHT22;5977;51.972;7.640;2023-05-31T05:54:03;20.10;67.40
11836;DHT22;5977;51.972;7.640;2023-05-31T05:56:33;20.30;67.10
11836;DHT22;5977;51.972;7.640;2023-05-31T05:59:03;20.40;66.60
11836;DHT22;5977;51.972;7.640;2023-05-31T06:01:57;20.40;66.20
11836;DHT22;5977;51.972;7.640;2023-05-31T06:04:25;20.30;65.50
11836;DHT22;5977;51.972;7.640;2023-05-31T06:06:53;20.00;66.30
11836;DHT22;5977;51.972;7.640;2023-05-31T06:09:21;19.90;67.40
11836;DHT22;5977;51.972;7.640;2023-05-31T06:11:50;20.20;68.00
11836;DHT22;5977;51.972;7.640;2023-05-31T06:14:18;20.40;67.20
11836;DHT22;5977;51.972;7.640;2023-05-31T06:16:50;20.30;67.20
11836;DHT22;5977;51.972;7.640;2023-05-31T06:19:18;20.20;68.10
11836;DHT22;5977;51.972;7.640;2023-05-31T06:21:46;20.10;67.60
11836;DHT22;5977;51.972;7.640;2023-05-31T06:24:15;20.20;68.00
11836;DHT22;5977;51.972;7.640;2023-05-31T06:26:43;20.50;67.70
11836;DHT22;5977;51.972;7.640;2023-05-31T06:29:13;20.40;67.30
11836;DHT22;5977;51.972;7.640;2023-05-31T06:31:56;20.00;67.80
11836;DHT22;5977;51.972;7.640;2023-05-31T06:34:28;20.10;68.30
11836;DHT22;5977;51.972;7.640;2023-05-31T06:36:58;20.50;68.30
11836;DHT22;5977;51.972;7.640;2023-05-31T06:39:27;20.50;67.90
11836;DHT22;5977;51.972;7.640;2023-05-31T06:41:55;20.20;68.00
11836;DHT22;5977;51.972;7.640;2023-05-31T06:44:40;19.90;68.70
11836;DHT22;5977;51.972;7.640;2023-05-31T06:47:45;20.50;69.20
11836;DHT22;5977;51.972;7.640;2023-05-31T06:50:22;20.50;67.70
11836;DHT22;5977;51.972;7.640;2023-05-31T06:53:08;20.60;67.00
11836;DHT22;5977;51.972;7.640;2023-05-31T06:55:42;20.50;68.10
11836;DHT22;5977;51.972;7.640;2023-05-31T06:58:14;20.40;66.10
11836;DHT22;5977;51.972;7.640;2023-05-31T07:00:45;20.50;66.50
11836;DHT22;5977;51.972;7.640;2023-05-31T07:03:23;20.70;67.40
11836;DHT22;5977;51.972;7.640;2023-05-31T07:05:51;20.50;66.30
11836;DHT22;5977;51.972;7.640;2023-05-31T07:08:20;20.60;67.20
11836;DHT22;5977;51.972;7.640;2023-05-31T07:11:06;20.90;67.10
11836;DHT22;5977;51.972;7.640;2023-05-31T07:13:34;20.70;65.80
11836;DHT22;5977;51.972;7.640;2023-05-31T07:16:04;20.60;66.20
11836;DHT22;5977;51.972;7.640;2023-05-31T07:18:32;20.70;66.70
11836;DHT22;5977;51.972;7.640;2023-05-31T07:21:00;20.60;66.80
11836;DHT22;5977;51.972;7.640;2023-05-31T07:23:28;20.50;66.50
11836;DHT22;5977;51.972;7.640;2023-05-31T07:30:22;20.60;66.70
11836;DHT22;5977;51.972;7.640;2023-05-31T07:32:51;20.60;66.00
11836;DHT22;5977;51.972;7.640;2023-05-31T07:35:19;20.60;65.70
11836;DHT22;5977;51.972;7.640;2023-05-31T07:37:47;20.70;65.60
11836;DHT22;5977;51.972;7.640;2023-05-31T07:40:15;20.70;65.40
11836;DHT22;5977;51.972;7.640;2023-05-31T07:42:43;20.70;65.50
11836;DHT22;5977;51.972;7.640;2023-05-31T07:45:12;20.60;65.40
11836;DHT22;5977;51.972;7.640;2023-05-31T07:47:40;20.70;65.50
11836;DHT22;5977;51.972;7.640;2023-05-31T07:50:09;20.70;65.10
11836;DHT22;5977;51.972;7.640;2023-05-31T07:52:37;20.80;64.80
11836;DHT22;5977;51.972;7.640;2023-05-31T07:55:06;20.60;65.80
11836;DHT22;5977;51.972;7.640;2023-05-31T07:57:34;20.40;65.40
11836;DHT22;5977;51.972;7.640;2023-05-31T08:00:03;20.50;66.50
11836;DHT22;5977;51.972;7.640;2023-05-31T08:02:37;20.50;65.50
11836;DHT22;5977;51.972;7.640;2023-05-31T08:05:05;20.40;65.90
11836;DHT22;5977;51.972;7.640;2023-05-31T08:07:35;20.30;67.10
11836;DHT22;5977;51.972;7.640;2023-05-31T08:10:04;20.90;68.80
11836;DHT22;5977;51.972;7.640;2023-05-31T08:12:32;21.70;65.80
11836;DHT22;5977;51.972;7.640;2023-05-31T08:15:01;22.00;64.10
11836;DHT22;5977;51.972;7.640;2023-05-31T08:17:29;22.90;62.70
11836;DHT22;5977;51.972;7.640;2023-05-31T08:19:57;23.70;60.40
11836;DHT22;5977;51.972;7.640;2023-05-31T08:22:25;24.10;59.70
11836;DHT22;5977;51.972;7.640;2023-05-31T08:24:54;24.50;58.80
11836;DHT22;5977;51.972;7.640;2023-05-31T08:27:22;24.80;57.10
11836;DHT22;5977;51.972;7.640;2023-05-31T08:29:50;24.30;60.60
11836;DHT22;5977;51.972;7.640;2023-05-31T08:32:18;24.10;59.50
11836;DHT22;5977;51.972;7.640;2023-05-31T08:34:46;23.90;59.30
11836;DHT22;5977;51.972;7.640;2023-05-31T08:37:14;23.80;58.50
11836;DHT22;5977;51.972;7.640;2023-05-31T08:39:42;23.80;58.80
11836;DHT22;5977;51.972;7.640;2023-05-31T08:42:15;23.80;58.40
11836;DHT22;5977;51.972;7.640;2023-05-31T08:44:46;23.80;58.10
11836;DHT22;5977;51.972;7.640;2023-05-31T08:47:19;23.80;58.80
11836;DHT22;5977;51.972;7.640;2023-05-31T08:49:51;23.90;57.70
11836;DHT22;5977;51.972;7.640;2023-05-31T08:52:21;23.90;57.90
11836;DHT22;5977;51.972;7.640;2023-05-31T08:54:50;23.90;57.30
11836;DHT22;5977;51.972;7.640;2023-05-31T08:57:22;24.00;57.20
11836;DHT22;5977;51.972;7.640;2023-05-31T08:59:52;24.10;57.40
11836;DHT22;5977;51.972;7.640;2023-05-31T09:02:21;24.20;57.40
11836;DHT22;5977;51.972;7.640;2023-05-31T09:04:50;24.30;57.30
11836;DHT22;5977;51.972;7.640;2023-05-31T09:07:19;24.50;56.50
11836;DHT22;5977;51.972;7.640;2023-05-31T09:09:46;24.50;57.00
11836;DHT22;5977;51.972;7.640;2023-05-31T09:12:15;24.70;56.80
11836;DHT22;5977;51.972;7.640;2023-05-31T09:14:44;24.60;54.40
11836;DHT22;5977;51.972;7.640;2023-05-31T09:17:12;24.50;54.90
11836;DHT22;5977;51.972;7.640;2023-05-31T09:19:40;24.30;54.60
11836;DHT22;5977;51.972;7.640;2023-05-31T09:22:09;24.10;56.00
11836;DHT22;5977;51.972;7.640;2023-05-31T09:24:38;24.20;55.80
11836;DHT22;5977;51.972;7.640;2023-05-31T09:27:10;24.30;55.60
11836;DHT22;5977;51.972;7.640;2023-05-31T09:29:38;24.30;54.90
11836;DHT22;5977;51.972;7.640;2023-05-31T09:32:10;24.50;54.90
11836;DHT22;5977;51.972;7.640;2023-05-31T09:34:38;24.60;55.80
11836;DHT22;5977;51.972;7.640;2023-05-31T09:37:07;24.60;54.40
11836;DHT22;5977;51.972;7.640;2023-05-31T09:39:35;24.60;54.90
11836;DHT22;5977;51.972;7.640;2023-05-31T09:42:11;24.50;54.00
11836;DHT22;5977;51.972;7.640;2023-05-31T09:44:47;24.30;54.30
11836;DHT22;5977;51.972;7.640;2023-05-31T09:47:16;24.30;53.90
11836;DHT22;5977;51.972;7.640;2023-05-31T09:49:52;24.20;53.60
11836;DHT22;5977;51.972;7.640;2023-05-31T09:52:26;24.20;54.40
11836;DHT22;5977;51.972;7.640;2023-05-31T09:54:55;24.40;55.30
11836;DHT22;5977;51.972;7.640;2023-05-31T09:57:30;24.50;53.50
11836;DHT22;5977;51.972;7.640;2023-05-31T10:00:00;24.60;54.80
11836;DHT22;5977;51.972;7.640;2023-05-31T10:02:40;24.50;54.00
11836;DHT22;5977;51.972;7.640;2023-05-31T10:05:10;24.50;55.50
11836;DHT22;5977;51.972;7.640;2023-05-31T10:07:39;24.30;54.50
11836;DHT22;5977;51.972;7.640;2023-05-31T10:10:08;24.20;54.50
11836;DHT22;5977;51.972;7.640;2023-05-31T10:12:42;24.20;55.00
11836;DHT22;5977;51.972;7.640;2023-05-31T10:15:12;24.30;54.70
11836;DHT22;5977;51.972;7.640;2023-05-31T10:17:48;24.50;54.50
11836;DHT22;5977;51.972;7.640;2023-05-31T10:20:19;24.30;52.20
11836;DHT22;5977;51.972;7.640;2023-05-31T10:22:49;24.30;52.50
11836;DHT22;5977;51.972;7.640;2023-05-31T10:25:26;24.10;53.70
11836;DHT22;5977;51.972;7.640;2023-05-31T10:27:59;24.00;54.70
11836;DHT22;5977;51.972;7.640;2023-05-31T10:30:31;24.00;54.20
11836;DHT22;5977;51.972;7.640;2023-05-31T10:33:06;23.90;53.90
11836;DHT22;5977;51.972;7.640;2023-05-31T10:35:35;23.90;54.50
11836;DHT22;5977;51.972;7.640;2023-05-31T10:38:03;23.90;54.60
11836;DHT22;5977;51.972;7.640;2023-05-31T10:40:36;23.80;54.70
11836;DHT22;5977;51.972;7.640;2023-05-31T10:43:11;23.90;53.70
11836;DHT22;5977;51.972;7.640;2023-05-31T10:45:45;24.10;53.40
11836;DHT22;5977;51.972;7.640;2023-05-31T10:48:19;24.30;53.70
11836;DHT22;5977;51.972;7.640;2023-05-31T10:50:55;24.30;54.30
11836;DHT22;5977;51.972;7.640;2023-05-31T10:53:28;24.40;52.90
11836;DHT22;5977;51.972;7.640;2023-05-31T10:56:04;24.50;53.20
11836;DHT22;5977;51.972;7.640;2023-05-31T10:58:35;24.50;53.10
11836;DHT22;5977;51.972;7.640;2023-05-31T11:01:05;24.60;54.40
11836;DHT22;5977;51.972;7.640;2023-05-31T11:03:35;24.60;53.70
11836;DHT22;5977;51.972;7.640;2023-05-31T11:06:07;24.60;55.00
11836;DHT22;5977;51.972;7.640;2023-05-31T11:08:38;24.60;55.20
11836;DHT22;5977;51.972;7.640;2023-05-31T11:11:25;24.50;52.80
11836;DHT22;5977;51.972;7.640;2023-05-31T11:13:58;24.40;53.70
11836;DHT22;5977;51.972;7.640;2023-05-31T11:16:27;24.30;52.60
11836;DHT22;5977;51.972;7.640;2023-05-31T11:19:04;24.30;53.40
11836;DHT22;5977;51.972;7.640;2023-05-31T11:21:45;24.20;53.00
11836;DHT22;5977;51.972;7.640;2023-05-31T11:24:30;24.30;54.10
11836;DHT22;5977;51.972;7.640;2023-05-31T11:26:59;24.40;54.00
11836;DHT22;5977;51.972;7.640;2023-05-31T11:30:00;24.40;54.00
11836;DHT22;5977;51.972;7.640;2023-05-31T11:32:56;24.50;54.50
11836;DHT22;5977;51.972;7.640;2023-05-31T11:35:31;24.40;54.70
11836;DHT22;5977;51.972;7.640;2023-05-31T11:38:01;24.40;54.50
11836;DHT22;5977;51.972;7.640;2023-05-31T11:40:32;24.50;55.70
11836;DHT22;5977;51.972;7.640;2023-05-31T11:43:03;24.40;53.90
11836;DHT22;5977;51.972;7.640;2023-05-31T11:45:42;24.40;54.00
11836;DHT22;5977;51.972;7.640;2023-05-31T11:48:24;24.30;53.70
11836;DHT22;5977;51.972;7.640;2023-05-31T11:50:57;24.30;54.10
11836;DHT22;5977;51.972;7.640;2023-05-31T11:53:26;24.30;54.40
11836;DHT22;5977;51.972;7.640;2023-05-31T11:55:55;24.30;55.20
11836;DHT22;5977;51.972;7.640;2023-05-31T11:58:25;24.40;54.70
11836;DHT22;5977;51.972;7.640;2023-05-31T12:00:57;24.40;55.20
11836;DHT22;5977;51.972;7.640;2023-05-31T12:03:26;24.50;55.10
11836;DHT22;5977;51.972;7.640;2023-05-31T12:05:57;24.50;55.80
11836;DHT22;5977;51.972;7.640;2023-05-31T12:08:27;24.50;54.60
11836;DHT22;5977;51.972;7.640;2023-05-31T12:11:04;24.40;54.70
11836;DHT22;5977;51.972;7.640;2023-05-31T12:13:33;24.40;55.70
11836;DHT22;5977;51.972;7.640;2023-05-31T12:16:04;24.40;54.80
11836;DHT22;5977;51.972;7.640;2023-05-31T12:18:32;24.40;55.70
11836;DHT22;5977;51.972;7.640;2023-05-31T12:21:06;24.40;54.90
11836;DHT22;5977;51.972;7.640;2023-05-31T12:23:52;24.40;56.00
11836;DHT22;5977;51.972;7.640;2023-05-31T12:26:22;24.40;54.80
11836;DHT22;5977;51.972;7.640;2023-05-31T12:28:50;24.40;54.50
11836;DHT22;5977;51.972;7.640;2023-05-31T12:31:20;24.40;55.30
11836;DHT22;5977;51.972;7.640;2023-05-31T12:33:57;24.30;54.60
11836;DHT22;5977;51.972;7.640;2023-05-31T12:36:28;24.30;54.70
11836;DHT22;5977;51.972;7.640;2023-05-31T12:38:56;24.30;54.20
11836;DHT22;5977;51.972;7.640;2023-05-31T12:41:24;24.30;55.10
11836;DHT22;5977;51.972;7.640;2023-05-31T12:43:54;24.30;55.50
11836;DHT22;5977;51.972;7.640;2023-05-31T12:46:21;24.30;54.80
11836;DHT22;5977;51.972;7.640;2023-05-31T12:48:50;24.30;54.70
11836;DHT22;5977;51.972;7.640;2023-05-31T12:51:20;24.20;55.00
11836;DHT22;5977;51.972;7.640;2023-05-31T12:53:50;24.10;54.10
11836;DHT22;5977;51.972;7.640;2023-05-31T12:56:18;24.10;54.40
11836;DHT22;5977;51.972;7.640;2023-05-31T12:58:46;24.20;56.10
11836;DHT22;5977;51.972;7.640;2023-05-31T13:01:15;24.20;55.20
11836;DHT22;5977;51.972;7.640;2023-05-31T13:03:43;24.20;55.50
11836;DHT22;5977;51.972;7.640;2023-05-31T13:06:11;24.30;55.20
11836;DHT22;5977;51.972;7.640;2023-05-31T13:08:39;24.30;56.00
11836;DHT22;5977;51.972;7.640;2023-05-31T13:11:09;24.30;54.90
11836;DHT22;5977;51.972;7.640;2023-05-31T13:13:37;24.20;54.70
11836;DHT22;5977;51.972;7.640;2023-05-31T13:16:05;24.30;55.80
11836;DHT22;5977;51.972;7.640;2023-05-31T13:18:33;24.30;55.20
11836;DHT22;5977;51.972;7.640;2023-05-31T13:21:01;24.30;54.30
11836;DHT22;5977;51.972;7.640;2023-05-31T13:23:29;24.30;55.20
11836;DHT22;5977;51.972;7.640;2023-05-31T13:25:57;24.30;55.70
11836;DHT22;5977;51.972;7.640;2023-05-31T13:28:26;24.30;55.50
11836;DHT22;5977;51.972;7.640;2023-05-31T13:30:54;24.20;55.40
11836;DHT22;5977;51.972;7.640;2023-05-31T13:33:23;24.20;55.40
11836;DHT22;5977;51.972;7.640;2023-05-31T13:35:53;24.00;55.10
11836;DHT22;5977;51.972;7.640;2023-05-31T13:38:22;23.90;55.10
11836;DHT22;5977;51.972;7.640;2023-05-31T13:40:50;24.10;54.80
11836;DHT22;5977;51.972;7.640;2023-05-31T13:43:18;24.20;54.60
11836;DHT22;5977;51.972;7.640;2023-05-31T13:45:48;24.20;54.60
11836;DHT22;5977;51.972;7.640;2023-05-31T13:48:16;24.20;53.60
11836;DHT22;5977;51.972;7.640;2023-05-31T13:50:44;24.30;54.40
11836;DHT22;5977;51.972;7.640;2023-05-31T13:53:12;24.30;53.40
11836;DHT22;5977;51.972;7.640;2023-05-31T13:55:40;24.30;54.20
11836;DHT22;5977;51.972;7.640;2023-05-31T13:58:21;24.40;54.40
11836;DHT22;5977;51.972;7.640;2023-05-31T14:00:51;24.40;54.10
11836;DHT22;5977;51.972;7.640;2023-05-31T14:03:21;24.30;53.60
11836;DHT22;5977;51.972;7.640;2023-05-31T14:05:49;24.30;53.90
11836;DHT22;5977;51.972;7.640;2023-05-31T14:08:17;24.30;53.50
11836;DHT22;5977;51.972;7.640;2023-05-31T14:10:45;24.30;53.60
11836;DHT22;5977;51.972;7.640;2023-05-31T14:13:13;24.40;53.20
11836;DHT22;5977;51.972;7.640;2023-05-31T14:15:41;24.30;53.30
11836;DHT22;5977;51.972;7.640;2023-05-31T14:18:10;24.20;53.60
11836;DHT22;5977;51.972;7.640;2023-05-31T14:20:38;24.00;54.20
11836;DHT22;5977;51.972;7.640;2023-05-31T14:23:06;23.90;54.90
11836;DHT22;5977;51.972;7.640;2023-05-31T14:25:34;23.80;54.90
11836;DHT22;5977;51.972;7.640;2023-05-31T14:28:02;24.00;54.90
11836;DHT22;5977;51.972;7.640;2023-05-31T14:30:30;24.20;54.50
11836;DHT22;5977;51.972;7.640;2023-05-31T14:32:58;24.30;53.50
11836;DHT22;5977;51.972;7.640;2023-05-31T14:35:28;24.30;53.10
11836;DHT22;5977;51.972;7.640;2023-05-31T14:37:56;24.40;53.50
11836;DHT22;5977;51.972;7.640;2023-05-31T14:40:38;24.40;53.20
11836;DHT22;5977;51.972;7.640;2023-05-31T14:43:06;24.40;52.30
11836;DHT22;5977;51.972;7.640;2023-05-31T14:45:35;24.30;53.10
11836;DHT22;5977;51.972;7.640;2023-05-31T14:48:03;24.20;53.20
11836;DHT22;5977;51.972;7.640;2023-05-31T14:50:32;24.20;51.50
11836;DHT22;5977;51.972;7.640;2023-05-31T14:53:00;24.10;53.10
11836;DHT22;5977;51.972;7.640;2023-05-31T14:55:28;24.10;51.90
11836;DHT22;5977;51.972;7.640;2023-05-31T14:57:56;24.10;52.50
11836;DHT22;5977;51.972;7.640;2023-05-31T15:00:24;24.30;53.70
11836;DHT22;5977;51.972;7.640;2023-05-31T15:02:52;24.40;53.70
11836;DHT22;5977;51.972;7.640;2023-05-31T15:05:20;24.40;52.80
11836;DHT22;5977;51.972;7.640;2023-05-31T15:07:49;24.50;52.50
11836;DHT22;5977;51.972;7.640;2023-05-31T15:10:17;24.50;52.50
11836;DHT22;5977;51.972;7.640;2023-05-31T15:12:45;24.50;51.90
11836;DHT22;5977;51.972;7.640;2023-05-31T15:15:14;24.50;53.00
11836;DHT22;5977;51.972;7.640;2023-05-31T15:17:42;24.50;53.10
11836;DHT22;5977;51.972;7.640;2023-05-31T15:20:13;24.60;52.60
11836;DHT22;5977;51.972;7.640;2023-05-31T15:22:41;24.60;52.40
11836;DHT22;5977;51.972;7.640;2023-05-31T15:25:10;24.60;51.20
11836;DHT22;5977;51.972;7.640;2023-05-31T15:27:38;24.50;51.70
11836;DHT22;5977;51.972;7.640;2023-05-31T15:30:07;24.40;50.40
11836;DHT22;5977;51.972;7.640;2023-05-31T15:32:35;24.40;51.20
11836;DHT22;5977;51.972;7.640;2023-05-31T15:35:04;24.40;50.10
11836;DHT22;5977;51.972;7.640;2023-05-31T15:37:32;24.40;50.20
11836;DHT22;5977;51.972;7.640;2023-05-31T15:40:00;24.40;50.60
11836;DHT22;5977;51.972;7.640;2023-05-31T15:42:30;24.50;51.60
11836;DHT22;5977;51.972;7.640;2023-05-31T15:44:58;24.50;50.80
11836;DHT22;5977;51.972;7.640;2023-05-31T15:47:26;24.50;50.90
11836;DHT22;5977;51.972;7.640;2023-05-31T15:49:54;24.50;51.00
11836;DHT22;5977;51.972;7.640;2023-05-31T15:52:22;24.50;50.80
11836;DHT22;5977;51.972;7.640;2023-05-31T15:54:50;24.50;50.50
11836;DHT22;5977;51.972;7.640;2023-05-31T15:57:17;24.50;50.50
11836;DHT22;5977;51.972;7.640;2023-05-31T15:59:47;24.40;50.80
11836;DHT22;5977;51.972;7.640;2023-05-31T16:02:15;24.50;51.00
11836;DHT22;5977;51.972;7.640;2023-05-31T16:04:43;24.40;51.00
11836;DHT22;5977;51.972;7.640;2023-05-31T16:07:10;24.40;50.70
11836;DHT22;5977;51.972;7.640;2023-05-31T16:09:40;24.40;51.20